sensor_id;sensor_type;location;lat;lon;timestamp;P1;durP1;ratioP1;P2;durP2;ratioP2
38117;SDS011;23928;47.562;7.508;2022-08-24T00:01:29;3.10;;;2.53;;
38117;SDS011;23928;47.562;7.508;2022-08-24T00:03:55;3.20;;;2.23;;
38117;SDS011;23928;47.562;7.508;2022-08-24T00:06:24;4.37;;;2.43;;
38117;SDS011;23928;47.562;7.508;2022-08-24T00:08:51;3.23;;;2.00;;
38117;SDS011;23928;47.562;7.508;2022-08-24T00:11:18;2.20;;;1.90;;
38117;SDS011;23928;47.562;7.508;2022-08-24T00:13:45;4.47;;;2.40;;
38117;SDS011;23928;47.562;7.508;2022-08-24T00:16:11;2.67;;;2.43;;
38117;SDS011;23928;47.562;7.508;2022-08-24T00:18:37;2.97;;;2.13;;
38117;SDS011;23928;47.562;7.508;2022-08-24T00:21:03;2.27;;;2.17;;
38117;SDS011;23928;47.562;7.508;2022-08-24T00:23:29;2.30;;;2.07;;
38117;SDS011;23928;47.562;7.508;2022-08-24T00:25:55;2.40;;;2.20;;
38117;SDS011;23928;47.562;7.508;2022-08-24T00:28:21;2.23;;;2.00;;
38117;SDS011;23928;47.562;7.508;2022-08-24T00:30:47;3.17;;;2.10;;
38117;SDS011;23928;47.562;7.508;2022-08-24T00:33:13;2.63;;;2.23;;
38117;SDS011;23928;47.562;7.508;2022-08-24T00:35:39;3.43;;;2.13;;
38117;SDS011;23928;47.562;7.508;2022-08-24T00:38:05;2.37;;;2.17;;
38117;SDS011;23928;47.562;7.508;2022-08-24T00:40:35;2.20;;;2.00;;
38117;SDS011;23928;47.562;7.508;2022-08-24T00:43:04;3.57;;;2.47;;
38117;SDS011;23928;47.562;7.508;2022-08-24T00:45:41;2.97;;;2.20;;
38117;SDS011;23928;47.562;7.508;2022-08-24T00:48:12;3.00;;;2.07;;
38117;SDS011;23928;47.562;7.508;2022-08-24T00:50:45;2.67;;;2.47;;
38117;SDS011;23928;47.562;7.508;2022-08-24T00:53:22;2.80;;;2.60;;
38117;SDS011;23928;47.562;7.508;2022-08-24T00:55:56;2.37;;;2.17;;
38117;SDS011;23928;47.562;7.508;2022-08-24T00:58:28;5.40;;;2.40;;
38117;SDS011;23928;47.562;7.508;2022-08-24T01:01:10;2.73;;;2.47;;
38117;SDS011;23928;47.562;7.508;2022-08-24T01:03:38;4.03;;;2.57;;
38117;SDS011;23928;47.562;7.508;2022-08-24T01:06:06;3.53;;;2.30;;
38117;SDS011;23928;47.562;7.508;2022-08-24T01:08:32;4.40;;;2.43;;
38117;SDS011;23928;47.562;7.508;2022-08-24T01:11:02;3.33;;;2.60;;
38117;SDS011;23928;47.562;7.508;2022-08-24T01:13:31;2.57;;;2.20;;
38117;SDS011;23928;47.562;7.508;2022-08-24T01:16:00;2.60;;;2.40;;
38117;SDS011;23928;47.562;7.508;2022-08-24T01:18:27;3.10;;;2.63;;
38117;SDS011;23928;47.562;7.508;2022-08-24T01:21:20;3.30;;;2.40;;
38117;SDS011;23928;47.562;7.508;2022-08-24T01:24:02;3.93;;;2.33;;
38117;SDS011;23928;47.562;7.508;2022-08-24T01:26:34;5.97;;;2.90;;
38117;SDS011;23928;47.562;7.508;2022-08-24T01:29:06;3.30;;;2.63;;
38117;SDS011;23928;47.562;7.508;2022-08-24T01:31:35;4.00;;;2.70;;
38117;SDS011;23928;47.562;7.508;2022-08-24T01:34:01;3.87;;;2.80;;
38117;SDS011;23928;47.562;7.508;2022-08-24T01:36:44;5.33;;;2.73;;
38117;SDS011;23928;47.562;7.508;2022-08-24T01:39:18;5.13;;;2.90;;
38117;SDS011;23928;47.562;7.508;2022-08-24T01:41:46;3.93;;;2.80;;
38117;SDS011;23928;47.562;7.508;2022-08-24T01:44:13;3.13;;;2.80;;
38117;SDS011;23928;47.562;7.508;2022-08-24T01:46:42;4.17;;;3.00;;
38117;SDS011;23928;47.562;7.508;2022-08-24T01:49:09;3.23;;;2.67;;
38117;SDS011;23928;47.562;7.508;2022-08-24T01:51:35;3.47;;;3.00;;
38117;SDS011;23928;47.562;7.508;2022-08-24T01:54:02;3.37;;;3.00;;
38117;SDS011;23928;47.562;7.508;2022-08-24T01:56:29;4.83;;;2.63;;
38117;SDS011;23928;47.562;7.508;2022-08-24T01:58:55;2.80;;;2.50;;
38117;SDS011;23928;47.562;7.508;2022-08-24T02:01:21;3.30;;;2.80;;
38117;SDS011;23928;47.562;7.508;2022-08-24T02:03:49;4.73;;;2.20;;
38117;SDS011;23928;47.562;7.508;2022-08-24T02:06:14;2.50;;;2.30;;
38117;SDS011;23928;47.562;7.508;2022-08-24T02:08:42;2.77;;;2.40;;
38117;SDS011;23928;47.562;7.508;2022-08-24T02:11:08;2.73;;;2.07;;
38117;SDS011;23928;47.562;7.508;2022-08-24T02:13:34;3.60;;;2.47;;
38117;SDS011;23928;47.562;7.508;2022-08-24T02:16:01;2.83;;;2.63;;
38117;SDS011;23928;47.562;7.508;2022-08-24T02:18:28;4.27;;;2.80;;
38117;SDS011;23928;47.562;7.508;2022-08-24T02:20:53;3.43;;;2.60;;
38117;SDS011;23928;47.562;7.508;2022-08-24T02:23:19;4.30;;;2.60;;
38117;SDS011;23928;47.562;7.508;2022-08-24T02:25:45;3.87;;;2.77;;
38117;SDS011;23928;47.562;7.508;2022-08-24T02:28:11;3.93;;;2.90;;
38117;SDS011;23928;47.562;7.508;2022-08-24T02:30:37;4.73;;;2.80;;
38117;SDS011;23928;47.562;7.508;2022-08-24T02:33:04;3.33;;;3.03;;
38117;SDS011;23928;47.562;7.508;2022-08-24T02:35:30;4.80;;;3.30;;
38117;SDS011;23928;47.562;7.508;2022-08-24T02:37:56;4.27;;;2.67;;
38117;SDS011;23928;47.562;7.508;2022-08-24T02:40:22;2.90;;;2.67;;
38117;SDS011;23928;47.562;7.508;2022-08-24T02:42:48;3.20;;;2.90;;
38117;SDS011;23928;47.562;7.508;2022-08-24T02:45:14;2.87;;;2.63;;
38117;SDS011;23928;47.562;7.508;2022-08-24T02:47:40;3.50;;;3.00;;
38117;SDS011;23928;47.562;7.508;2022-08-24T02:50:08;3.30;;;3.00;;
38117;SDS011;23928;47.562;7.508;2022-08-24T02:52:36;4.03;;;3.00;;
38117;SDS011;23928;47.562;7.508;2022-08-24T02:55:04;3.23;;;2.93;;
38117;SDS011;23928;47.562;7.508;2022-08-24T02:57:32;4.87;;;3.13;;
38117;SDS011;23928;47.562;7.508;2022-08-24T02:59:57;3.60;;;3.10;;
38117;SDS011;23928;47.562;7.508;2022-08-24T03:02:23;3.13;;;2.87;;
38117;SDS011;23928;47.562;7.508;2022-08-24T03:04:49;2.90;;;2.70;;
38117;SDS011;23928;47.562;7.508;2022-08-24T03:07:15;3.47;;;2.50;;
38117;SDS011;23928;47.562;7.508;2022-08-24T03:09:40;4.37;;;2.97;;
38117;SDS011;23928;47.562;7.508;2022-08-24T03:12:06;6.17;;;3.57;;
38117;SDS011;23928;47.562;7.508;2022-08-24T03:14:32;4.63;;;3.30;;
38117;SDS011;23928;47.562;7.508;2022-08-24T03:16:59;5.03;;;2.67;;
38117;SDS011;23928;47.562;7.508;2022-08-24T03:19:25;3.07;;;2.70;;
38117;SDS011;23928;47.562;7.508;2022-08-24T03:21:51;3.07;;;2.80;;
38117;SDS011;23928;47.562;7.508;2022-08-24T03:24:18;3.10;;;2.90;;
38117;SDS011;23928;47.562;7.508;2022-08-24T03:26:44;3.67;;;2.90;;
38117;SDS011;23928;47.562;7.508;2022-08-24T03:29:09;3.63;;;3.00;;
38117;SDS011;23928;47.562;7.508;2022-08-24T03:31:36;3.80;;;3.13;;
38117;SDS011;23928;47.562;7.508;2022-08-24T03:34:02;3.57;;;2.87;;
38117;SDS011;23928;47.562;7.508;2022-08-24T03:36:28;4.17;;;3.00;;
38117;SDS011;23928;47.562;7.508;2022-08-24T03:38:54;3.70;;;2.70;;
38117;SDS011;23928;47.562;7.508;2022-08-24T03:41:19;3.37;;;2.80;;
38117;SDS011;23928;47.562;7.508;2022-08-24T03:43:45;3.67;;;2.93;;
38117;SDS011;23928;47.562;7.508;2022-08-24T03:46:12;3.10;;;2.90;;
38117;SDS011;23928;47.562;7.508;2022-08-24T03:48:39;4.33;;;2.93;;
38117;SDS011;23928;47.562;7.508;2022-08-24T03:51:06;5.70;;;3.60;;
38117;SDS011;23928;47.562;7.508;2022-08-24T03:53:34;3.70;;;3.30;;
38117;SDS011;23928;47.562;7.508;2022-08-24T03:56:00;3.37;;;3.07;;
38117;SDS011;23928;47.562;7.508;2022-08-24T03:58:25;4.10;;;3.20;;
38117;SDS011;23928;47.562;7.508;2022-08-24T04:00:52;3.40;;;3.20;;
38117;SDS011;23928;47.562;7.508;2022-08-24T04:03:18;6.20;;;3.30;;
38117;SDS011;23928;47.562;7.508;2022-08-24T04:05:44;3.37;;;2.97;;
38117;SDS011;23928;47.562;7.508;2022-08-24T04:08:09;3.60;;;3.30;;
38117;SDS011;23928;47.562;7.508;2022-08-24T04:10:35;3.70;;;2.80;;
38117;SDS011;23928;47.562;7.508;2022-08-24T04:13:02;3.50;;;3.20;;
38117;SDS011;23928;47.562;7.508;2022-08-24T04:15:27;3.40;;;3.10;;
38117;SDS011;23928;47.562;7.508;2022-08-24T04:17:56;3.40;;;3.10;;
38117;SDS011;23928;47.562;7.508;2022-08-24T04:20:22;4.60;;;3.07;;
38117;SDS011;23928;47.562;7.508;2022-08-24T04:22:49;3.20;;;2.73;;
38117;SDS011;23928;47.562;7.508;2022-08-24T04:25:15;3.23;;;2.77;;
38117;SDS011;23928;47.562;7.508;2022-08-24T04:27:41;3.00;;;2.70;;
38117;SDS011;23928;47.562;7.508;2022-08-24T04:30:07;3.93;;;3.10;;
38117;SDS011;23928;47.562;7.508;2022-08-24T04:32:33;3.93;;;2.87;;
38117;SDS011;23928;47.562;7.508;2022-08-24T04:34:59;4.17;;;2.90;;
38117;SDS011;23928;47.562;7.508;2022-08-24T04:37:25;7.93;;;3.13;;
38117;SDS011;23928;47.562;7.508;2022-08-24T04:39:50;3.50;;;3.20;;
38117;SDS011;23928;47.562;7.508;2022-08-24T04:42:17;3.70;;;3.10;;
38117;SDS011;23928;47.562;7.508;2022-08-24T04:44:44;3.30;;;3.00;;
38117;SDS011;23928;47.562;7.508;2022-08-24T04:47:10;3.63;;;2.93;;
38117;SDS011;23928;47.562;7.508;2022-08-24T04:49:36;5.17;;;2.80;;
38117;SDS011;23928;47.562;7.508;2022-08-24T04:52:03;3.43;;;2.90;;
38117;SDS011;23928;47.562;7.508;2022-08-24T04:54:31;4.03;;;2.90;;
38117;SDS011;23928;47.562;7.508;2022-08-24T04:56:57;4.13;;;2.90;;
38117;SDS011;23928;47.562;7.508;2022-08-24T04:59:23;3.10;;;2.80;;
38117;SDS011;23928;47.562;7.508;2022-08-24T05:01:48;3.80;;;3.23;;
38117;SDS011;23928;47.562;7.508;2022-08-24T05:04:14;4.27;;;3.37;;
38117;SDS011;23928;47.562;7.508;2022-08-24T05:06:40;7.23;;;3.40;;
38117;SDS011;23928;47.562;7.508;2022-08-24T05:09:06;3.80;;;3.30;;
38117;SDS011;23928;47.562;7.508;2022-08-24T05:11:34;3.10;;;2.90;;
38117;SDS011;23928;47.562;7.508;2022-08-24T05:14:01;3.97;;;3.10;;
38117;SDS011;23928;47.562;7.508;2022-08-24T05:16:27;3.70;;;3.10;;
38117;SDS011;23928;47.562;7.508;2022-08-24T05:18:54;4.47;;;3.00;;
38117;SDS011;23928;47.562;7.508;2022-08-24T05:21:20;3.70;;;2.83;;
38117;SDS011;23928;47.562;7.508;2022-08-24T05:23:47;3.77;;;3.40;;
38117;SDS011;23928;47.562;7.508;2022-08-24T05:26:19;3.03;;;2.80;;
38117;SDS011;23928;47.562;7.508;2022-08-24T05:28:48;3.33;;;3.03;;
38117;SDS011;23928;47.562;7.508;2022-08-24T05:31:16;5.43;;;2.83;;
38117;SDS011;23928;47.562;7.508;2022-08-24T05:33:43;3.00;;;2.70;;
38117;SDS011;23928;47.562;7.508;2022-08-24T05:38:41;6.27;;;3.07;;
38117;SDS011;23928;47.562;7.508;2022-08-24T05:41:06;3.73;;;3.43;;
38117;SDS011;23928;47.562;7.508;2022-08-24T05:43:32;3.47;;;2.70;;
38117;SDS011;23928;47.562;7.508;2022-08-24T05:45:58;3.33;;;2.70;;
38117;SDS011;23928;47.562;7.508;2022-08-24T05:48:23;4.07;;;2.87;;
38117;SDS011;23928;47.562;7.508;2022-08-24T05:50:50;3.23;;;2.70;;
38117;SDS011;23928;47.562;7.508;2022-08-24T05:53:20;11.87;;;3.70;;
38117;SDS011;23928;47.562;7.508;2022-08-24T05:55:46;3.20;;;2.50;;
38117;SDS011;23928;47.562;7.508;2022-08-24T05:58:12;2.93;;;2.53;;
38117;SDS011;23928;47.562;7.508;2022-08-24T06:00:38;3.17;;;2.73;;
38117;SDS011;23928;47.562;7.508;2022-08-24T06:03:04;3.63;;;2.70;;
38117;SDS011;23928;47.562;7.508;2022-08-24T06:05:30;3.00;;;2.47;;
38117;SDS011;23928;47.562;7.508;2022-08-24T06:07:56;6.17;;;2.43;;
38117;SDS011;23928;47.562;7.508;2022-08-24T06:10:21;4.87;;;2.97;;
38117;SDS011;23928;47.562;7.508;2022-08-24T06:12:47;2.80;;;2.50;;
38117;SDS011;23928;47.562;7.508;2022-08-24T06:15:13;5.87;;;3.20;;
38117;SDS011;23928;47.562;7.508;2022-08-24T06:17:39;4.97;;;3.07;;
38117;SDS011;23928;47.562;7.508;2022-08-24T06:20:05;5.27;;;2.83;;
38117;SDS011;23928;47.562;7.508;2022-08-24T06:22:31;3.50;;;3.13;;
38117;SDS011;23928;47.562;7.508;2022-08-24T06:24:57;3.57;;;3.13;;
38117;SDS011;23928;47.562;7.508;2022-08-24T06:27:42;3.37;;;2.77;;
38117;SDS011;23928;47.562;7.508;2022-08-24T06:30:09;3.43;;;3.07;;
38117;SDS011;23928;47.562;7.508;2022-08-24T06:32:36;3.13;;;2.83;;
38117;SDS011;23928;47.562;7.508;2022-08-24T06:35:03;4.83;;;3.00;;
38117;SDS011;23928;47.562;7.508;2022-08-24T06:37:29;5.00;;;3.33;;
38117;SDS011;23928;47.562;7.508;2022-08-24T06:39:56;5.80;;;3.83;;
38117;SDS011;23928;47.562;7.508;2022-08-24T06:42:22;8.57;;;3.33;;
38117;SDS011;23928;47.562;7.508;2022-08-24T06:44:49;5.33;;;3.57;;
38117;SDS011;23928;47.562;7.508;2022-08-24T06:47:15;3.87;;;3.50;;
38117;SDS011;23928;47.562;7.508;2022-08-24T06:49:41;6.67;;;3.70;;
38117;SDS011;23928;47.562;7.508;2022-08-24T06:52:06;4.27;;;3.40;;
38117;SDS011;23928;47.562;7.508;2022-08-24T06:54:34;4.83;;;3.50;;
38117;SDS011;23928;47.562;7.508;2022-08-24T06:57:00;5.03;;;4.20;;
38117;SDS011;23928;47.562;7.508;2022-08-24T06:59:25;4.70;;;3.70;;
38117;SDS011;23928;47.562;7.508;2022-08-24T07:01:52;5.83;;;4.33;;
38117;SDS011;23928;47.562;7.508;2022-08-24T07:04:19;6.10;;;3.80;;
38117;SDS011;23928;47.562;7.508;2022-08-24T07:06:46;7.53;;;4.40;;
38117;SDS011;23928;47.562;7.508;2022-08-24T07:09:11;5.13;;;3.43;;
38117;SDS011;23928;47.562;7.508;2022-08-24T07:11:37;5.97;;;4.07;;
38117;SDS011;23928;47.562;7.508;2022-08-24T07:14:03;6.47;;;4.40;;
38117;SDS011;23928;47.562;7.508;2022-08-24T07:16:29;7.10;;;4.63;;
38117;SDS011;23928;47.562;7.508;2022-08-24T07:18:55;7.47;;;4.60;;
38117;SDS011;23928;47.562;7.508;2022-08-24T07:21:21;6.83;;;4.77;;
38117;SDS011;23928;47.562;7.508;2022-08-24T07:23:47;8.70;;;4.57;;
38117;SDS011;23928;47.562;7.508;2022-08-24T07:26:18;6.43;;;4.20;;
38117;SDS011;23928;47.562;7.508;2022-08-24T07:28:47;10.87;;;4.40;;
38117;SDS011;23928;47.562;7.508;2022-08-24T07:31:17;5.53;;;4.30;;
38117;SDS011;23928;47.562;7.508;2022-08-24T07:33:45;7.03;;;3.77;;
38117;SDS011;23928;47.562;7.508;2022-08-24T07:36:10;6.33;;;3.80;;
38117;SDS011;23928;47.562;7.508;2022-08-24T07:38:39;5.37;;;3.80;;
38117;SDS011;23928;47.562;7.508;2022-08-24T07:41:04;5.80;;;3.73;;
38117;SDS011;23928;47.562;7.508;2022-08-24T07:43:30;5.40;;;4.13;;
38117;SDS011;23928;47.562;7.508;2022-08-24T07:45:56;9.43;;;4.07;;
38117;SDS011;23928;47.562;7.508;2022-08-24T07:48:23;5.67;;;4.00;;
38117;SDS011;23928;47.562;7.508;2022-08-24T07:50:49;4.63;;;3.80;;
38117;SDS011;23928;47.562;7.508;2022-08-24T07:53:15;8.20;;;4.00;;
38117;SDS011;23928;47.562;7.508;2022-08-24T07:55:41;5.83;;;3.83;;
38117;SDS011;23928;47.562;7.508;2022-08-24T07:58:08;7.33;;;3.70;;
38117;SDS011;23928;47.562;7.508;2022-08-24T08:00:33;8.53;;;3.87;;
38117;SDS011;23928;47.562;7.508;2022-08-24T08:03:00;7.73;;;4.20;;
38117;SDS011;23928;47.562;7.508;2022-08-24T08:05:26;7.40;;;3.87;;
38117;SDS011;23928;47.562;7.508;2022-08-24T08:07:52;7.37;;;3.40;;
38117;SDS011;23928;47.562;7.508;2022-08-24T08:10:18;5.87;;;3.47;;
38117;SDS011;23928;47.562;7.508;2022-08-24T08:12:44;8.60;;;4.10;;
38117;SDS011;23928;47.562;7.508;2022-08-24T08:15:09;6.07;;;3.60;;
38117;SDS011;23928;47.562;7.508;2022-08-24T08:17:36;7.80;;;3.47;;
38117;SDS011;23928;47.562;7.508;2022-08-24T08:20:04;4.37;;;3.10;;
38117;SDS011;23928;47.562;7.508;2022-08-24T08:22:31;5.70;;;3.50;;
38117;SDS011;23928;47.562;7.508;2022-08-24T08:25:15;7.60;;;3.23;;
38117;SDS011;23928;47.562;7.508;2022-08-24T08:27:43;6.37;;;3.33;;
38117;SDS011;23928;47.562;7.508;2022-08-24T08:30:09;9.50;;;3.40;;
38117;SDS011;23928;47.562;7.508;2022-08-24T08:32:34;5.07;;;3.07;;
38117;SDS011;23928;47.562;7.508;2022-08-24T08:35:00;8.00;;;3.20;;
38117;SDS011;23928;47.562;7.508;2022-08-24T08:37:27;8.00;;;3.43;;
38117;SDS011;23928;47.562;7.508;2022-08-24T08:39:53;2.73;;;2.50;;
38117;SDS011;23928;47.562;7.508;2022-08-24T08:45:15;6.37;;;2.90;;
38117;SDS011;23928;47.562;7.508;2022-08-24T08:50:18;4.67;;;2.70;;
38117;SDS011;23928;47.562;7.508;2022-08-24T08:58:34;5.17;;;3.00;;
38117;SDS011;23928;47.562;7.508;2022-08-24T09:02:04;4.27;;;3.30;;
38117;SDS011;23928;47.562;7.508;2022-08-24T09:07:24;4.70;;;3.23;;
38117;SDS011;23928;47.562;7.508;2022-08-24T09:15:51;4.40;;;2.80;;
38117;SDS011;23928;47.562;7.508;2022-08-24T09:24:27;2.50;;;2.30;;
38117;SDS011;23928;47.562;7.508;2022-08-24T09:27:28;3.93;;;2.20;;
38117;SDS011;23928;47.562;7.508;2022-08-24T09:55:14;5.50;;;2.50;;
38117;SDS011;23928;47.562;7.508;2022-08-24T10:15:18;5.37;;;2.60;;
38117;SDS011;23928;47.562;7.508;2022-08-24T10:26:35;2.67;;;2.20;;
38117;SDS011;23928;47.562;7.508;2022-08-24T10:29:32;5.43;;;2.07;;
38117;SDS011;23928;47.562;7.508;2022-08-24T10:35:19;4.23;;;2.43;;
38117;SDS011;23928;47.562;7.508;2022-08-24T10:38:34;2.50;;;2.30;;
38117;SDS011;23928;47.562;7.508;2022-08-24T10:47:06;2.27;;;2.03;;
38117;SDS011;23928;47.562;7.508;2022-08-24T10:54:54;2.27;;;1.80;;
38117;SDS011;23928;47.562;7.508;2022-08-24T10:57:30;3.00;;;1.83;;
38117;SDS011;23928;47.562;7.508;2022-08-24T11:02:39;2.00;;;1.70;;
38117;SDS011;23928;47.562;7.508;2022-08-24T11:05:07;3.17;;;2.07;;
38117;SDS011;23928;47.562;7.508;2022-08-24T11:07:35;2.40;;;1.60;;
38117;SDS011;23928;47.562;7.508;2022-08-24T11:10:05;3.73;;;2.10;;
38117;SDS011;23928;47.562;7.508;2022-08-24T11:17:42;4.33;;;1.80;;
38117;SDS011;23928;47.562;7.508;2022-08-24T11:20:25;2.10;;;1.77;;
38117;SDS011;23928;47.562;7.508;2022-08-24T11:23:09;1.77;;;1.67;;
38117;SDS011;23928;47.562;7.508;2022-08-24T11:25:56;2.60;;;1.80;;
38117;SDS011;23928;47.562;7.508;2022-08-24T11:28:32;2.40;;;2.20;;
38117;SDS011;23928;47.562;7.508;2022-08-24T11:31:01;2.87;;;1.70;;
38117;SDS011;23928;47.562;7.508;2022-08-24T11:33:43;3.70;;;1.90;;
38117;SDS011;23928;47.562;7.508;2022-08-24T11:36:20;3.03;;;1.83;;
38117;SDS011;23928;47.562;7.508;2022-08-24T11:39:08;3.03;;;1.80;;
38117;SDS011;23928;47.562;7.508;2022-08-24T11:49:48;2.67;;;1.83;;
38117;SDS011;23928;47.562;7.508;2022-08-24T11:58:10;3.37;;;2.00;;
38117;SDS011;23928;47.562;7.508;2022-08-24T12:00:55;1.90;;;1.70;;
38117;SDS011;23928;47.562;7.508;2022-08-24T12:11:16;2.67;;;1.60;;
38117;SDS011;23928;47.562;7.508;2022-08-24T12:14:07;3.30;;;1.80;;
38117;SDS011;23928;47.562;7.508;2022-08-24T12:16:59;2.87;;;2.07;;
38117;SDS011;23928;47.562;7.508;2022-08-24T12:19:30;3.37;;;1.37;;
38117;SDS011;23928;47.562;7.508;2022-08-24T12:22:04;3.43;;;1.63;;
38117;SDS011;23928;47.562;7.508;2022-08-24T12:24:38;2.20;;;2.00;;
38117;SDS011;23928;47.562;7.508;2022-08-24T12:27:08;3.13;;;1.53;;
38117;SDS011;23928;47.562;7.508;2022-08-24T12:29:41;3.03;;;1.77;;
38117;SDS011;23928;47.562;7.508;2022-08-24T12:32:17;3.00;;;1.70;;
38117;SDS011;23928;47.562;7.508;2022-08-24T12:37:31;2.60;;;1.60;;
38117;SDS011;23928;47.562;7.508;2022-08-24T12:45:45;2.30;;;1.80;;
38117;SDS011;23928;47.562;7.508;2022-08-24T12:48:16;3.40;;;1.80;;
38117;SDS011;23928;47.562;7.508;2022-08-24T12:53:21;5.60;;;2.00;;
38117;SDS011;23928;47.562;7.508;2022-08-24T13:01:46;2.37;;;1.63;;
38117;SDS011;23928;47.562;7.508;2022-08-24T13:44:40;1.97;;;1.40;;
38117;SDS011;23928;47.562;7.508;2022-08-24T13:47:30;3.53;;;1.80;;
38117;SDS011;23928;47.562;7.508;2022-08-24T14:04:40;1.87;;;1.67;;
38117;SDS011;23928;47.562;7.508;2022-08-24T14:07:14;2.87;;;1.40;;
38117;SDS011;23928;47.562;7.508;2022-08-24T14:16:04;2.33;;;1.37;;
38117;SDS011;23928;47.562;7.508;2022-08-24T14:22:13;2.00;;;1.50;;
38117;SDS011;23928;47.562;7.508;2022-08-24T14:51:40;1.93;;;1.70;;
38117;SDS011;23928;47.562;7.508;2022-08-24T15:02:49;1.63;;;1.30;;
38117;SDS011;23928;47.562;7.508;2022-08-24T15:08:08;1.03;;;1.00;;
38117;SDS011;23928;47.562;7.508;2022-08-24T15:10:42;1.50;;;1.40;;
38117;SDS011;23928;47.562;7.508;2022-08-24T15:16:06;1.23;;;1.10;;
38117;SDS011;23928;47.562;7.508;2022-08-24T15:18:38;1.77;;;0.93;;
38117;SDS011;23928;47.562;7.508;2022-08-24T15:23:52;0.97;;;0.97;;
38117;SDS011;23928;47.562;7.508;2022-08-24T15:29:35;0.63;;;0.60;;
38117;SDS011;23928;47.562;7.508;2022-08-24T15:32:11;2.67;;;1.00;;
38117;SDS011;23928;47.562;7.508;2022-08-24T15:34:44;1.67;;;1.10;;
38117;SDS011;23928;47.562;7.508;2022-08-24T15:37:25;0.93;;;0.93;;
38117;SDS011;23928;47.562;7.508;2022-08-24T15:39:59;6.77;;;1.00;;
38117;SDS011;23928;47.562;7.508;2022-08-24T15:42:26;1.33;;;1.17;;
38117;SDS011;23928;47.562;7.508;2022-08-24T15:44:53;0.83;;;0.83;;
38117;SDS011;23928;47.562;7.508;2022-08-24T15:47:26;1.10;;;0.93;;
38117;SDS011;23928;47.562;7.508;2022-08-24T15:50:19;1.03;;;0.70;;
38117;SDS011;23928;47.562;7.508;2022-08-24T15:53:00;1.17;;;0.83;;
38117;SDS011;23928;47.562;7.508;2022-08-24T15:58:12;2.20;;;1.10;;
38117;SDS011;23928;47.562;7.508;2022-08-24T16:00:51;4.47;;;1.20;;
38117;SDS011;23928;47.562;7.508;2022-08-24T16:06:18;4.60;;;0.87;;
38117;SDS011;23928;47.562;7.508;2022-08-24T16:09:01;1.03;;;0.80;;
38117;SDS011;23928;47.562;7.508;2022-08-24T16:11:50;1.70;;;0.77;;
38117;SDS011;23928;47.562;7.508;2022-08-24T16:19:54;2.03;;;0.93;;
38117;SDS011;23928;47.562;7.508;2022-08-24T16:22:26;1.00;;;1.00;;
38117;SDS011;23928;47.562;7.508;2022-08-24T16:25:16;1.57;;;1.00;;
38117;SDS011;23928;47.562;7.508;2022-08-24T16:30:44;1.20;;;1.10;;
38117;SDS011;23928;47.562;7.508;2022-08-24T16:35:59;0.80;;;0.80;;
38117;SDS011;23928;47.562;7.508;2022-08-24T16:38:28;1.40;;;0.80;;
38117;SDS011;23928;47.562;7.508;2022-08-24T16:40:59;0.90;;;0.90;;
38117;SDS011;23928;47.562;7.508;2022-08-24T16:43:27;1.53;;;1.00;;
38117;SDS011;23928;47.562;7.508;2022-08-24T16:45:55;3.77;;;1.17;;
38117;SDS011;23928;47.562;7.508;2022-08-24T16:48:22;1.63;;;0.80;;
38117;SDS011;23928;47.562;7.508;2022-08-24T16:50:48;1.23;;;0.77;;
38117;SDS011;23928;47.562;7.508;2022-08-24T16:53:13;1.30;;;0.90;;
38117;SDS011;23928;47.562;7.508;2022-08-24T16:55:39;0.77;;;0.77;;
38117;SDS011;23928;47.562;7.508;2022-08-24T16:58:05;0.80;;;0.80;;
38117;SDS011;23928;47.562;7.508;2022-08-24T17:00:31;2.10;;;1.10;;
38117;SDS011;23928;47.562;7.508;2022-08-24T17:02:57;1.17;;;0.83;;
38117;SDS011;23928;47.562;7.508;2022-08-24T17:05:23;1.50;;;1.00;;
38117;SDS011;23928;47.562;7.508;2022-08-24T17:07:49;1.00;;;0.80;;
38117;SDS011;23928;47.562;7.508;2022-08-24T17:10:16;1.80;;;1.10;;
38117;SDS011;23928;47.562;7.508;2022-08-24T17:12:44;1.33;;;1.03;;
38117;SDS011;23928;47.562;7.508;2022-08-24T17:15:10;1.20;;;1.10;;
38117;SDS011;23928;47.562;7.508;2022-08-24T17:17:37;1.00;;;1.00;;
38117;SDS011;23928;47.562;7.508;2022-08-24T17:20:05;1.20;;;0.80;;
38117;SDS011;23928;47.562;7.508;2022-08-24T17:22:33;1.03;;;0.80;;
38117;SDS011;23928;47.562;7.508;2022-08-24T17:25:00;1.73;;;1.07;;
38117;SDS011;23928;47.562;7.508;2022-08-24T17:27:28;0.80;;;0.77;;
38117;SDS011;23928;47.562;7.508;2022-08-24T17:29:56;0.90;;;0.90;;
38117;SDS011;23928;47.562;7.508;2022-08-24T17:32:23;0.87;;;0.87;;
38117;SDS011;23928;47.562;7.508;2022-08-24T17:34:49;1.33;;;0.87;;
38117;SDS011;23928;47.562;7.508;2022-08-24T17:37:15;1.50;;;0.80;;
38117;SDS011;23928;47.562;7.508;2022-08-24T17:39:41;0.87;;;0.80;;
38117;SDS011;23928;47.562;7.508;2022-08-24T17:42:07;1.23;;;0.97;;
38117;SDS011;23928;47.562;7.508;2022-08-24T17:44:33;1.80;;;0.73;;
38117;SDS011;23928;47.562;7.508;2022-08-24T17:47:00;1.47;;;0.90;;
38117;SDS011;23928;47.562;7.508;2022-08-24T17:49:27;0.87;;;0.70;;
38117;SDS011;23928;47.562;7.508;2022-08-24T17:51:55;1.00;;;0.90;;
38117;SDS011;23928;47.562;7.508;2022-08-24T17:54:22;1.10;;;1.00;;
38117;SDS011;23928;47.562;7.508;2022-08-24T17:56:48;1.17;;;0.87;;
38117;SDS011;23928;47.562;7.508;2022-08-24T17:59:16;1.57;;;1.20;;
38117;SDS011;23928;47.562;7.508;2022-08-24T18:04:17;1.20;;;1.10;;
38117;SDS011;23928;47.562;7.508;2022-08-24T18:06:44;2.50;;;1.13;;
38117;SDS011;23928;47.562;7.508;2022-08-24T18:09:14;1.50;;;1.10;;
38117;SDS011;23928;47.562;7.508;2022-08-24T18:11:42;2.43;;;1.10;;
38117;SDS011;23928;47.562;7.508;2022-08-24T18:14:08;1.20;;;1.10;;
38117;SDS011;23928;47.562;7.508;2022-08-24T18:16:33;3.07;;;1.17;;
38117;SDS011;23928;47.562;7.508;2022-08-24T18:18:59;1.30;;;1.20;;
38117;SDS011;23928;47.562;7.508;2022-08-24T18:21:25;1.30;;;1.20;;
38117;SDS011;23928;47.562;7.508;2022-08-24T18:23:54;0.90;;;0.90;;
38117;SDS011;23928;47.562;7.508;2022-08-24T18:26:21;1.57;;;0.83;;
38117;SDS011;23928;47.562;7.508;2022-08-24T18:28:50;1.43;;;1.23;;
38117;SDS011;23928;47.562;7.508;2022-08-24T18:31:16;1.43;;;1.20;;
38117;SDS011;23928;47.562;7.508;2022-08-24T18:33:49;1.30;;;1.20;;
38117;SDS011;23928;47.562;7.508;2022-08-24T18:36:15;3.30;;;1.23;;
38117;SDS011;23928;47.562;7.508;2022-08-24T18:38:41;1.57;;;1.33;;
38117;SDS011;23928;47.562;7.508;2022-08-24T18:41:07;2.83;;;1.33;;
38117;SDS011;23928;47.562;7.508;2022-08-24T18:43:34;1.63;;;1.30;;
38117;SDS011;23928;47.562;7.508;2022-08-24T18:46:00;2.20;;;1.23;;
38117;SDS011;23928;47.562;7.508;2022-08-24T18:48:26;2.60;;;1.40;;
38117;SDS011;23928;47.562;7.508;2022-08-24T18:50:51;2.33;;;1.77;;
38117;SDS011;23928;47.562;7.508;2022-08-24T18:53:17;2.60;;;1.83;;
38117;SDS011;23928;47.562;7.508;2022-08-24T18:55:44;3.60;;;1.90;;
38117;SDS011;23928;47.562;7.508;2022-08-24T18:58:11;5.70;;;1.83;;
38117;SDS011;23928;47.562;7.508;2022-08-24T19:00:40;2.30;;;1.60;;
38117;SDS011;23928;47.562;7.508;2022-08-24T19:03:06;2.37;;;1.37;;
38117;SDS011;23928;47.562;7.508;2022-08-24T19:05:33;3.83;;;1.60;;
38117;SDS011;23928;47.562;7.508;2022-08-24T19:07:59;2.40;;;1.60;;
38117;SDS011;23928;47.562;7.508;2022-08-24T19:10:26;1.57;;;1.37;;
38117;SDS011;23928;47.562;7.508;2022-08-24T19:12:55;2.73;;;1.70;;
38117;SDS011;23928;47.562;7.508;2022-08-24T19:15:26;3.03;;;1.50;;
38117;SDS011;23928;47.562;7.508;2022-08-24T19:17:52;2.10;;;1.07;;
38117;SDS011;23928;47.562;7.508;2022-08-24T19:20:20;3.93;;;1.40;;
38117;SDS011;23928;47.562;7.508;2022-08-24T19:22:46;4.33;;;1.30;;
38117;SDS011;23928;47.562;7.508;2022-08-24T19:25:13;1.40;;;1.30;;
38117;SDS011;23928;47.562;7.508;2022-08-24T19:27:43;3.90;;;1.60;;
38117;SDS011;23928;47.562;7.508;2022-08-24T19:30:09;1.80;;;1.33;;
38117;SDS011;23928;47.562;7.508;2022-08-24T19:32:35;1.70;;;1.40;;